createdAt,value
2019-05-06T00:00:01.653Z,7.69
2019-05-06T00:02:30.318Z,7.72
2019-05-06T00:04:58.742Z,7.73
2019-05-06T00:07:27.292Z,7.84
2019-05-06T00:09:55.734Z,7.51
2019-05-06T00:12:24.284Z,7.53
2019-05-06T00:14:54.199Z,7.51
2019-05-06T00:17:23.960Z,7.58
2019-05-06T00:19:54.038Z,7.19
2019-05-06T00:22:23.753Z,7.18
2019-05-06T00:24:59.700Z,7.32
2019-05-06T00:27:34.160Z,7.38
2019-05-06T00:30:04.495Z,7.51
2019-05-06T00:32:34.746Z,7.40
2019-05-06T00:35:04.561Z,7.60
2019-05-06T00:37:34.883Z,7.91
2019-05-06T00:40:08.097Z,7.50
2019-05-06T00:42:38.164Z,7.35
2019-05-06T00:45:07.805Z,6.99
2019-05-06T00:47:36.493Z,6.84
2019-05-06T00:50:06.358Z,6.82
2019-05-06T00:52:35.561Z,6.71
2019-05-06T00:55:04.563Z,6.72
2019-05-06T00:57:45.051Z,6.76
2019-05-06T01:00:16.887Z,6.88
2019-05-06T01:02:45.379Z,7.46
2019-05-06T01:05:14.650Z,7.26
2019-05-06T01:07:44.103Z,7.61
2019-05-06T01:10:14.622Z,7.56
2019-05-06T01:12:44.769Z,7.41
2019-05-06T01:15:15.881Z,7.17
2019-05-06T01:17:44.462Z,7.20
2019-05-06T01:20:14.025Z,7.03
2019-05-06T01:22:43.712Z,6.94
2019-05-06T01:25:14.175Z,7.00
2019-05-06T01:27:44.447Z,7.04
2019-05-06T01:30:15.280Z,6.95
2019-05-06T01:32:43.741Z,6.90
2019-05-06T01:35:14.015Z,6.91
2019-05-06T01:37:44.510Z,6.75
2019-05-06T01:40:21.091Z,6.95
2019-05-06T01:42:54.194Z,6.82
2019-05-06T01:45:23.751Z,6.89
2019-05-06T01:47:54.291Z,6.78
2019-05-06T01:50:23.501Z,6.78
2019-05-06T01:52:54.040Z,6.74
2019-05-06T01:55:23.881Z,6.74
2019-05-06T01:57:54.413Z,6.76
2019-05-06T02:00:23.658Z,6.89
2019-05-06T02:02:54.624Z,6.94
2019-05-06T02:05:24.196Z,6.91
2019-05-06T02:07:54.914Z,6.78
2019-05-06T02:10:23.861Z,6.82
2019-05-06T02:12:54.068Z,6.66
2019-05-06T02:15:23.924Z,6.78
2019-05-06T02:17:54.985Z,6.75
2019-05-06T02:20:24.599Z,6.61
2019-05-06T02:22:54.524Z,6.61
2019-05-06T02:25:24.660Z,6.50
2019-05-06T02:27:54.166Z,6.38
2019-05-06T02:30:27.435Z,6.28
2019-05-06T02:33:04.360Z,6.48
2019-05-06T02:35:37.384Z,6.30
2019-05-06T02:38:07.486Z,6.39
2019-05-06T02:40:35.920Z,6.31
2019-05-06T02:43:04.360Z,6.24
2019-05-06T02:45:33.701Z,6.25
2019-05-06T02:48:13.999Z,6.25
2019-05-06T02:50:47.211Z,6.26
2019-05-06T02:53:17.287Z,6.21
2019-05-06T02:55:45.713Z,6.47
2019-05-06T02:58:15.115Z,6.10
2019-05-06T03:00:43.655Z,6.42
2019-05-06T03:03:13.946Z,6.37
2019-05-06T03:05:43.957Z,6.17
2019-05-06T03:08:13.470Z,6.01
2019-05-06T03:10:44.168Z,6.12
2019-05-06T03:13:14.268Z,5.98
2019-05-06T03:15:43.560Z,6.10
2019-05-06T03:18:14.764Z,6.17
2019-05-06T03:20:53.286Z,6.14
2019-05-06T03:23:26.335Z,6.02
2019-05-06T03:25:54.783Z,6.00
2019-05-06T03:28:23.235Z,6.10
2019-05-06T03:30:56.237Z,6.28
2019-05-06T03:33:44.656Z,5.76
2019-05-06T03:36:05.264Z,5.54
2019-05-06T03:38:22.985Z,5.67
2019-05-06T03:40:53.781Z,5.59
2019-05-06T03:43:23.251Z,5.38
2019-05-06T03:45:53.860Z,5.28
2019-05-06T03:48:24.134Z,5.20
2019-05-06T03:50:55.630Z,5.14
2019-05-06T03:53:23.302Z,5.10
2019-05-06T03:55:54.244Z,4.97
2019-05-06T03:58:26.846Z,5.07
2019-05-06T04:00:57.042Z,4.98
2019-05-06T04:03:42.413Z,4.89
2019-05-06T04:05:55.956Z,4.81
2019-05-06T04:08:24.725Z,4.72
2019-05-06T04:10:54.454Z,4.74
2019-05-06T04:13:23.268Z,4.65
2019-05-06T04:16:10.209Z,4.34
2019-05-06T04:18:43.947Z,4.33
2019-05-06T04:21:16.700Z,4.45
2019-05-06T04:23:46.941Z,4.46
2019-05-06T04:26:17.412Z,4.54
2019-05-06T04:28:45.916Z,4.55
2019-05-06T04:31:14.426Z,4.52
2019-05-06T04:33:55.518Z,4.59
2019-05-06T04:36:13.461Z,4.78
2019-05-06T04:38:43.403Z,4.67
2019-05-06T04:41:13.654Z,4.76
2019-05-06T04:43:43.951Z,4.69
2019-05-06T04:46:16.513Z,4.70
2019-05-06T04:48:43.439Z,4.77
2019-05-06T04:51:13.624Z,4.89
2019-05-06T04:53:44.094Z,4.99
2019-05-06T04:56:14.387Z,5.44
2019-05-06T04:58:43.409Z,6.20
2019-05-06T05:01:15.720Z,6.74
2019-05-06T05:03:42.819Z,7.08
2019-05-06T05:06:13.589Z,7.53
2019-05-06T05:08:42.714Z,7.63
2019-05-06T05:11:15.842Z,7.92
2019-05-06T05:13:48.710Z,8.10
2019-05-06T05:16:24.947Z,8.39
2019-05-06T05:18:55.672Z,8.60
2019-05-06T05:21:24.101Z,8.43
2019-05-06T05:23:53.093Z,8.97
2019-05-06T05:26:22.544Z,8.75
2019-05-06T05:28:53.239Z,9.12
2019-05-06T05:31:23.055Z,9.06
2019-05-06T05:33:52.614Z,9.35
2019-05-06T05:36:23.154Z,9.73
2019-05-06T05:38:52.327Z,9.63
2019-05-06T05:41:23.206Z,10.00
2019-05-06T05:44:02.459Z,9.77
2019-05-06T05:46:32.898Z,10.31
2019-05-06T05:49:09.483Z,10.12
2019-05-06T05:51:37.982Z,10.08
2019-05-06T05:54:06.545Z,10.18
2019-05-06T05:56:35.110Z,10.74
2019-05-06T05:59:03.682Z,10.65
2019-05-06T06:01:32.802Z,10.44
2019-05-06T06:04:03.167Z,10.57
2019-05-06T06:06:33.244Z,10.61
2019-05-06T06:09:03.039Z,10.33
2019-05-06T06:11:45.598Z,10.43
2019-05-06T06:14:33.031Z,10.91
2019-05-06T06:17:05.714Z,10.15
2019-05-06T06:19:38.993Z,10.01
2019-05-06T06:22:09.205Z,10.05
2019-05-06T06:24:37.726Z,9.98
2019-05-06T06:27:06.233Z,10.13
2019-05-06T06:29:34.786Z,9.70
2019-05-06T06:32:13.568Z,9.69
2019-05-06T06:34:48.720Z,9.98
2019-05-06T06:37:34.041Z,9.82
2019-05-06T06:40:04.491Z,10.13
2019-05-06T06:42:33.508Z,9.79
2019-05-06T06:45:03.546Z,10.07
2019-05-06T06:47:32.215Z,10.10
2019-05-06T06:50:02.834Z,10.32
2019-05-06T06:52:32.587Z,10.14
2019-05-06T06:55:02.270Z,10.45
2019-05-06T06:57:35.203Z,10.07
2019-05-06T07:00:06.054Z,10.40
2019-05-06T07:02:36.394Z,10.56
2019-05-06T07:05:27.552Z,10.51
2019-05-06T07:07:53.088Z,10.59
2019-05-06T07:10:39.011Z,10.49
2019-05-06T07:13:07.696Z,10.44
2019-05-06T07:15:36.184Z,10.77
2019-05-06T07:18:04.890Z,10.45
2019-05-06T07:20:52.545Z,10.45
2019-05-06T07:23:25.398Z,10.64
2019-05-06T07:25:54.780Z,10.59
2019-05-06T07:28:24.432Z,10.58
2019-05-06T07:30:54.309Z,10.37
2019-05-06T07:33:23.159Z,10.47
2019-05-06T07:35:52.920Z,10.68
2019-05-06T07:38:23.069Z,10.60
2019-05-06T07:40:53.621Z,10.26
2019-05-06T07:43:39.200Z,10.51
2019-05-06T07:46:25.530Z,10.58
2019-05-06T07:48:54.067Z,10.63
2019-05-06T07:51:23.889Z,10.71
2019-05-06T07:53:52.586Z,10.62
2019-05-06T07:56:22.502Z,10.32
2019-05-06T07:58:53.007Z,10.79
2019-05-06T08:01:25.920Z,10.88
2019-05-06T08:03:53.268Z,10.48
2019-05-06T08:06:22.637Z,10.73
2019-05-06T08:08:53.629Z,11.01
2019-05-06T08:11:22.317Z,11.15
2019-05-06T08:13:52.779Z,10.93
2019-05-06T08:16:22.567Z,11.06
2019-05-06T08:18:52.470Z,10.79
2019-05-06T08:21:25.868Z,10.64
2019-05-06T08:23:55.256Z,11.27
2019-05-06T08:26:23.876Z,11.05
2019-05-06T08:28:52.872Z,10.95
2019-05-06T08:31:22.582Z,11.07
2019-05-06T08:33:52.472Z,11.19
2019-05-06T08:36:32.906Z,10.97
2019-05-06T08:39:03.110Z,10.83
2019-05-06T08:41:33.221Z,11.33
2019-05-06T08:44:02.644Z,11.12
2019-05-06T08:46:32.691Z,10.84
2019-05-06T08:49:03.016Z,11.46
2019-05-06T08:51:37.048Z,11.35
2019-05-06T08:54:07.197Z,11.98
2019-05-06T08:56:35.644Z,12.35
2019-05-06T08:59:04.563Z,12.81
2019-05-06T09:01:37.112Z,13.20
2019-05-06T09:04:12.194Z,12.65
2019-05-06T09:06:36.461Z,12.68
2019-05-06T09:09:07.229Z,11.89
2019-05-06T09:11:35.923Z,11.82
2019-05-06T09:14:04.912Z,11.53
2019-05-06T09:16:33.342Z,11.25
2019-05-06T09:19:04.432Z,10.95
2019-05-06T09:21:33.578Z,10.88
2019-05-06T09:24:02.486Z,11.15
2019-05-06T09:26:32.854Z,10.85
2019-05-06T09:29:02.952Z,10.85
2019-05-06T09:31:33.028Z,10.63
2019-05-06T09:34:05.564Z,10.56
2019-05-06T09:36:43.715Z,10.75
2019-05-06T09:39:06.604Z,10.85
2019-05-06T09:41:35.069Z,10.76
2019-05-06T09:44:03.856Z,10.93
2019-05-06T09:46:32.305Z,11.03
2019-05-06T09:49:03.286Z,11.32
2019-05-06T09:51:32.471Z,11.31
2019-05-06T09:54:04.027Z,11.40
2019-05-06T09:56:49.790Z,10.73
2019-05-06T09:59:18.361Z,10.46
2019-05-06T10:01:46.871Z,10.38
2019-05-06T10:04:15.945Z,10.47
2019-05-06T10:06:56.244Z,10.51
2019-05-06T10:09:16.263Z,10.64
2019-05-06T10:11:44.986Z,10.70
2019-05-06T10:14:13.547Z,11.05
2019-05-06T10:16:42.959Z,10.90
2019-05-06T10:19:13.225Z,10.80
2019-05-06T10:21:42.749Z,10.74
2019-05-06T10:24:11.468Z,10.82
2019-05-06T10:26:45.071Z,10.90
2019-05-06T10:29:24.324Z,10.89
2019-05-06T10:31:59.963Z,11.22
2019-05-06T10:34:28.376Z,11.10
2019-05-06T10:37:19.347Z,11.02
2019-05-06T10:40:13.360Z,11.36
2019-05-06T10:42:56.244Z,11.60
2019-05-06T10:45:29.750Z,11.79
2019-05-06T10:47:58.619Z,12.07
2019-05-06T10:50:28.964Z,12.36
2019-05-06T10:53:07.527Z,12.34
2019-05-06T10:55:37.816Z,12.49
2019-05-06T10:58:06.299Z,12.68
2019-05-06T11:00:34.792Z,13.25
2019-05-06T11:03:14.374Z,13.14
2019-05-06T11:05:43.150Z,13.82
2019-05-06T11:08:11.964Z,13.79
2019-05-06T11:10:44.292Z,13.59
2019-05-06T11:13:12.811Z,13.93
2019-05-06T11:15:43.452Z,12.95
2019-05-06T11:18:13.594Z,13.24
2019-05-06T11:20:43.817Z,12.98
2019-05-06T11:23:13.930Z,13.19
2019-05-06T11:25:43.218Z,12.80
2019-05-06T11:28:30.104Z,12.94
2019-05-06T11:31:02.548Z,13.23
2019-05-06T11:33:42.549Z,12.98
2019-05-06T11:36:15.277Z,12.74
2019-05-06T11:38:43.250Z,12.67
2019-05-06T11:41:13.163Z,13.02
2019-05-06T11:43:42.878Z,12.37
2019-05-06T11:46:12.290Z,12.45
2019-05-06T11:48:43.087Z,12.58
2019-05-06T11:51:12.938Z,13.16
2019-05-06T11:53:41.375Z,12.93
2019-05-06T11:56:09.947Z,13.62
2019-05-06T11:58:49.302Z,13.82
2019-05-06T12:01:19.368Z,13.27
2019-05-06T12:03:47.815Z,13.25
2019-05-06T12:06:16.280Z,13.00
2019-05-06T12:08:44.713Z,13.01
2019-05-06T12:11:13.141Z,13.30
2019-05-06T12:13:42.662Z,13.19
2019-05-06T12:16:14.168Z,13.33
2019-05-06T12:18:42.460Z,13.31
2019-05-06T12:21:14.582Z,13.21
2019-05-06T12:23:44.812Z,13.66
2019-05-06T12:26:13.215Z,13.72
2019-05-06T12:28:43.458Z,13.32
2019-05-06T12:31:12.667Z,13.27
2019-05-06T12:33:42.909Z,13.29
2019-05-06T12:36:14.943Z,13.39
2019-05-06T12:39:06.332Z,13.13
2019-05-06T12:41:33.557Z,13.31
2019-05-06T12:44:03.172Z,13.22
2019-05-06T12:46:36.444Z,13.37
2019-05-06T12:49:05.627Z,13.22
2019-05-06T12:51:34.059Z,13.37
2019-05-06T12:54:03.494Z,13.36
2019-05-06T12:56:32.227Z,13.28
2019-05-06T12:59:02.113Z,13.45
2019-05-06T13:01:33.886Z,13.68
2019-05-06T13:04:04.192Z,13.66
2019-05-06T13:06:33.418Z,13.97
2019-05-06T13:09:04.993Z,13.46
2019-05-06T13:11:31.901Z,13.34
2019-05-06T13:14:03.399Z,13.52
2019-05-06T13:16:33.235Z,13.48
2019-05-06T13:19:03.105Z,13.04
2019-05-06T13:21:32.782Z,13.02
2019-05-06T13:24:04.582Z,12.85
2019-05-06T13:26:33.205Z,12.90
2019-05-06T13:29:04.373Z,12.99
2019-05-06T13:31:33.012Z,12.96
2019-05-06T13:34:03.291Z,13.02
2019-05-06T13:36:33.273Z,12.81
2019-05-06T13:39:13.966Z,12.82
2019-05-06T13:41:32.783Z,12.71
2019-05-06T13:44:08.450Z,13.16
2019-05-06T13:46:38.624Z,13.32
2019-05-06T13:49:08.970Z,13.40
2019-05-06T13:51:39.105Z,13.16
2019-05-06T13:54:07.568Z,13.04
2019-05-06T13:56:36.064Z,12.98
2019-05-06T13:59:05.432Z,13.28
2019-05-06T14:01:43.877Z,13.40
2019-05-06T14:04:20.526Z,13.32
2019-05-06T14:06:49.182Z,13.39
2019-05-06T14:09:28.739Z,13.54
2019-05-06T14:11:47.766Z,13.46
2019-05-06T14:14:16.216Z,13.54
2019-05-06T14:16:44.647Z,13.27
2019-05-06T14:19:13.359Z,13.41
2019-05-06T14:21:43.120Z,13.16
2019-05-06T14:24:13.266Z,12.94
2019-05-06T14:26:44.773Z,12.94
2019-05-06T14:29:15.469Z,13.18
2019-05-06T14:31:45.541Z,12.90
2019-05-06T14:34:14.353Z,12.82
2019-05-06T14:36:43.406Z,13.12
2019-05-06T14:39:25.543Z,12.90
2019-05-06T14:41:55.719Z,12.85
2019-05-06T14:44:24.215Z,12.83
2019-05-06T14:47:00.353Z,12.95
2019-05-06T14:49:28.809Z,12.83
2019-05-06T14:51:57.236Z,12.90
2019-05-06T14:54:25.677Z,12.64
2019-05-06T14:56:55.854Z,12.78
2019-05-06T14:59:24.285Z,12.63
2019-05-06T15:01:53.644Z,12.99
2019-05-06T15:04:23.092Z,13.23
2019-05-06T15:06:52.970Z,13.04
2019-05-06T15:09:22.647Z,12.83
2019-05-06T15:11:51.321Z,12.72
2019-05-06T15:14:22.509Z,13.03
2019-05-06T15:16:52.544Z,13.07
2019-05-06T15:19:22.569Z,12.89
2019-05-06T15:21:52.913Z,12.65
2019-05-06T15:24:21.892Z,12.41
2019-05-06T15:26:52.189Z,12.43
2019-05-06T15:29:23.495Z,12.52
2019-05-06T15:31:58.200Z,12.69
2019-05-06T15:34:42.161Z,12.81
2019-05-06T15:37:20.755Z,12.58
2019-05-06T15:39:49.199Z,12.40
2019-05-06T15:42:17.650Z,12.31
2019-05-06T15:44:46.104Z,12.50
2019-05-06T15:47:14.527Z,12.77
2019-05-06T15:49:43.040Z,12.54
2019-05-06T15:52:12.509Z,12.31
2019-05-06T15:54:43.082Z,12.32
2019-05-06T15:57:11.343Z,12.55
2019-05-06T15:59:42.191Z,12.22
2019-05-06T16:02:10.649Z,12.09
2019-05-06T16:04:39.097Z,12.16
2019-05-06T16:07:07.624Z,12.02
2019-05-06T16:09:36.055Z,11.91
2019-05-06T16:12:04.650Z,12.26
2019-05-06T16:14:34.950Z,12.24
2019-05-06T16:17:03.428Z,12.48
2019-05-06T16:19:33.594Z,12.39
2019-05-06T16:22:04.171Z,12.36
2019-05-06T16:24:35.156Z,12.32
2019-05-06T16:27:03.764Z,12.46
2019-05-06T16:29:35.320Z,12.34
2019-05-06T16:32:05.266Z,12.33
2019-05-06T16:34:33.692Z,12.43
2019-05-06T16:37:02.586Z,12.53
2019-05-06T16:39:33.035Z,12.64
2019-05-06T16:42:03.587Z,12.42
2019-05-06T16:44:31.702Z,12.49
2019-05-06T16:47:00.129Z,12.79
2019-05-06T16:49:30.281Z,12.63
2019-05-06T16:51:58.745Z,12.53
2019-05-06T16:54:27.847Z,12.88
2019-05-06T16:57:07.300Z,12.64
2019-05-06T16:59:37.272Z,12.95
2019-05-06T17:02:07.475Z,12.65
2019-05-06T17:04:37.581Z,12.87
2019-05-06T17:07:06.026Z,12.66
2019-05-06T17:09:34.436Z,12.81
2019-05-06T17:12:04.692Z,13.05
2019-05-06T17:14:33.316Z,12.86
2019-05-06T17:17:03.292Z,12.81
2019-05-06T17:19:32.825Z,12.45
2019-05-06T17:22:03.032Z,12.44
2019-05-06T17:24:33.059Z,12.46
2019-05-06T17:27:02.722Z,12.40
2019-05-06T17:29:38.712Z,12.45
2019-05-06T17:32:14.564Z,12.29
2019-05-06T17:34:44.629Z,12.33
2019-05-06T17:37:14.707Z,12.69
2019-05-06T17:39:43.157Z,12.52
2019-05-06T17:42:11.592Z,12.12
2019-05-06T17:44:40.016Z,12.12
2019-05-06T17:47:13.080Z,12.04
2019-05-06T17:49:42.201Z,12.09
2019-05-06T17:52:12.459Z,12.02
2019-05-06T17:54:43.050Z,12.12
2019-05-06T17:57:12.328Z,12.04
2019-05-06T17:59:42.021Z,12.00
2019-05-06T18:02:12.327Z,11.95
2019-05-06T18:04:43.083Z,11.80
2019-05-06T18:07:12.269Z,11.83
2019-05-06T18:09:42.617Z,11.76
2019-05-06T18:12:12.149Z,11.76
2019-05-06T18:14:40.765Z,11.66
2019-05-06T18:17:09.289Z,11.63
2019-05-06T18:19:37.754Z,11.55
2019-05-06T18:22:06.252Z,11.42
2019-05-06T18:24:34.777Z,11.52
2019-05-06T18:27:03.215Z,11.50
2019-05-06T18:29:33.395Z,11.39
2019-05-06T18:32:03.739Z,11.34
2019-05-06T18:34:33.072Z,11.34
2019-05-06T18:37:03.148Z,11.28
2019-05-06T18:39:33.708Z,11.33
2019-05-06T18:42:15.436Z,11.23
2019-05-06T18:44:33.370Z,11.17
2019-05-06T18:47:02.813Z,11.15
2019-05-06T18:49:33.689Z,11.15
2019-05-06T18:52:02.155Z,11.12
2019-05-06T18:54:33.580Z,11.02
2019-05-06T18:57:04.608Z,11.00
2019-05-06T18:59:33.020Z,10.96
2019-05-06T19:02:02.106Z,10.83
2019-05-06T19:04:41.974Z,10.80
2019-05-06T19:07:16.213Z,10.72
2019-05-06T19:09:42.522Z,10.60
2019-05-06T19:12:12.844Z,10.44
2019-05-06T19:14:43.207Z,10.32
2019-05-06T19:17:13.179Z,10.16
2019-05-06T19:19:42.620Z,10.07
2019-05-06T19:22:13.737Z,9.96
2019-05-06T19:24:42.406Z,9.90
2019-05-06T19:27:12.768Z,10.06
2019-05-06T19:29:43.330Z,9.64
2019-05-06T19:32:12.289Z,9.72
2019-05-06T19:34:42.274Z,9.53
2019-05-06T19:37:10.873Z,9.70
2019-05-06T19:39:39.299Z,9.72
2019-05-06T19:42:07.724Z,9.70
2019-05-06T19:44:36.346Z,9.65
2019-05-06T19:47:04.906Z,9.74
2019-05-06T19:49:33.416Z,9.75
2019-05-06T19:52:03.229Z,9.69
2019-05-06T19:54:33.071Z,9.80
2019-05-06T19:57:02.472Z,9.75
2019-05-06T19:59:32.981Z,9.74
2019-05-06T20:02:01.354Z,9.92
2019-05-06T20:04:30.278Z,9.82
2019-05-06T20:07:02.521Z,9.82
2019-05-06T20:09:47.919Z,10.08
2019-05-06T20:12:22.945Z,10.05
2019-05-06T20:14:52.495Z,10.07
2019-05-06T20:17:22.307Z,9.96
2019-05-06T20:19:51.906Z,10.04
2019-05-06T20:22:20.438Z,10.00
2019-05-06T20:24:48.864Z,10.07
2019-05-06T20:27:17.325Z,9.87
2019-05-06T20:29:45.773Z,9.90
2019-05-06T20:32:14.187Z,9.80
2019-05-06T20:34:42.997Z,9.87
2019-05-06T20:37:12.833Z,9.80
2019-05-06T20:39:43.347Z,9.56
2019-05-06T20:42:12.745Z,9.62
2019-05-06T20:44:43.436Z,9.66
2019-05-06T20:47:13.073Z,9.67
2019-05-06T20:49:43.181Z,9.61
2019-05-06T20:52:12.253Z,9.64
2019-05-06T20:54:42.709Z,9.56
2019-05-06T20:57:12.322Z,9.45
2019-05-06T20:59:41.965Z,9.50
2019-05-06T21:02:12.457Z,9.51
2019-05-06T21:04:42.971Z,9.45
2019-05-06T21:07:12.420Z,9.41
2019-05-06T21:09:43.237Z,9.39
2019-05-06T21:12:11.205Z,9.40
2019-05-06T21:14:41.931Z,9.43
2019-05-06T21:17:12.158Z,9.43
2019-05-06T21:19:40.408Z,9.40
2019-05-06T21:22:08.851Z,9.21
2019-05-06T21:24:37.259Z,9.16
2019-05-06T21:27:05.723Z,9.14
2019-05-06T21:29:34.156Z,9.16
2019-05-06T21:32:02.860Z,9.26
2019-05-06T21:34:32.813Z,9.28
2019-05-06T21:37:02.950Z,9.16
2019-05-06T21:39:32.752Z,9.04
2019-05-06T21:42:01.428Z,9.07
2019-05-06T21:44:30.283Z,9.01
2019-05-06T21:46:59.999Z,8.94
2019-05-06T21:49:28.455Z,8.99
2019-05-06T21:51:56.875Z,9.01
2019-05-06T21:54:25.297Z,9.08
2019-05-06T21:56:53.776Z,9.12
2019-05-06T21:59:22.205Z,9.12
2019-05-06T22:01:52.060Z,9.17
2019-05-06T22:04:23.008Z,9.13
2019-05-06T22:06:52.473Z,9.20
2019-05-06T22:09:22.617Z,9.04
2019-05-06T22:11:52.946Z,8.79
2019-05-06T22:14:22.945Z,8.83
2019-05-06T22:16:51.652Z,8.73
2019-05-06T22:19:20.105Z,8.99
2019-05-06T22:22:03.357Z,8.82
2019-05-06T22:24:40.013Z,9.01
2019-05-06T22:27:08.511Z,9.01
2019-05-06T22:29:36.951Z,8.95
2019-05-06T22:32:05.482Z,8.88
2019-05-06T22:34:33.975Z,8.83
2019-05-06T22:37:03.321Z,8.78
2019-05-06T22:39:34.178Z,8.84
2019-05-06T22:42:02.079Z,8.91
2019-05-06T22:44:32.474Z,8.87
2019-05-06T22:47:02.726Z,9.01
2019-05-06T22:49:32.073Z,8.94
2019-05-06T22:52:02.785Z,8.92
2019-05-06T22:54:32.047Z,9.00
2019-05-06T22:57:02.355Z,9.03
2019-05-06T22:59:32.818Z,9.01
2019-05-06T23:02:15.402Z,9.43
2019-05-06T23:04:45.460Z,9.36
2019-05-06T23:07:14.361Z,9.39
2019-05-06T23:09:42.980Z,9.31
2019-05-06T23:12:12.276Z,9.10
2019-05-06T23:14:42.037Z,9.01
2019-05-06T23:17:12.676Z,8.97
2019-05-06T23:19:42.809Z,9.02
2019-05-06T23:22:12.093Z,9.05
2019-05-06T23:24:41.277Z,9.04
2019-05-06T23:27:09.708Z,9.02
2019-05-06T23:29:38.135Z,8.96
2019-05-06T23:32:06.795Z,8.97
2019-05-06T23:34:35.219Z,8.90
2019-05-06T23:37:06.691Z,8.83
2019-05-06T23:40:13.007Z,8.69
2019-05-06T23:43:17.623Z,8.69
2019-05-06T23:46:22.933Z,8.71
2019-05-06T23:49:27.840Z,8.70
2019-05-06T23:52:32.839Z,8.58
2019-05-06T23:55:37.552Z,8.93
2019-05-06T23:58:04.851Z,8.81
